sensor_id;sensor_type;location;lat;lon;timestamp;P1;durP1;ratioP1;P2;durP2;ratioP2
38037;SDS011;23843;51.320;12.340;2023-03-20T05:30:53;0.40;;;0.40;;
38037;SDS011;23843;51.320;12.340;2023-03-20T05:33:19;0.30;;;0.30;;
38037;SDS011;23843;51.320;12.340;2023-03-20T05:35:45;0.30;;;0.30;;
38037;SDS011;23843;51.320;12.340;2023-03-20T05:38:10;0.30;;;0.30;;
38037;SDS011;23843;51.320;12.340;2023-03-20T05:40:36;0.40;;;0.40;;
38037;SDS011;23843;51.320;12.340;2023-03-20T05:45:30;0.30;;;0.30;;
38037;SDS011;23843;51.320;12.340;2023-03-20T05:47:56;0.33;;;0.30;;
38037;SDS011;23843;51.320;12.340;2023-03-20T05:50:22;0.40;;;0.40;;
38037;SDS011;23843;51.320;12.340;2023-03-20T05:52:47;0.30;;;0.30;;
38037;SDS011;23843;51.320;12.340;2023-03-20T05:55:14;0.40;;;0.30;;
38037;SDS011;23843;51.320;12.340;2023-03-20T05:57:39;0.40;;;0.40;;
38037;SDS011;23843;51.320;12.340;2023-03-20T06:00:05;0.30;;;0.30;;
38037;SDS011;23843;51.320;12.340;2023-03-20T06:02:32;0.37;;;0.33;;
38037;SDS011;23843;51.320;12.340;2023-03-20T06:04:59;0.30;;;0.30;;
38037;SDS011;23843;51.320;12.340;2023-03-20T06:07:24;0.30;;;0.30;;
38037;SDS011;23843;51.320;12.340;2023-03-20T06:09:50;0.30;;;0.30;;
38037;SDS011;23843;51.320;12.340;2023-03-20T06:12:15;0.27;;;0.27;;
38037;SDS011;23843;51.320;12.340;2023-03-20T06:14:40;0.30;;;0.30;;
38037;SDS011;23843;51.320;12.340;2023-03-20T06:17:06;0.40;;;0.40;;
38037;SDS011;23843;51.320;12.340;2023-03-20T06:19:32;0.33;;;0.33;;
38037;SDS011;23843;51.320;12.340;2023-03-20T06:21:58;0.30;;;0.30;;
38037;SDS011;23843;51.320;12.340;2023-03-20T06:24:24;0.30;;;0.30;;
38037;SDS011;23843;51.320;12.340;2023-03-20T06:26:49;0.47;;;0.40;;
38037;SDS011;23843;51.320;12.340;2023-03-20T06:29:15;0.50;;;0.50;;
38037;SDS011;23843;51.320;12.340;2023-03-20T06:31:41;0.60;;;0.60;;
38037;SDS011;23843;51.320;12.340;2023-03-20T06:34:08;0.40;;;0.40;;
38037;SDS011;23843;51.320;12.340;2023-03-20T06:36:33;0.30;;;0.30;;
38037;SDS011;23843;51.320;12.340;2023-03-20T06:39:00;0.23;;;0.23;;
38037;SDS011;23843;51.320;12.340;2023-03-20T06:41:26;0.50;;;0.43;;
38037;SDS011;23843;51.320;12.340;2023-03-20T06:43:51;2.40;;;1.93;;
38037;SDS011;23843;51.320;12.340;2023-03-20T06:46:19;2.60;;;1.90;;
38037;SDS011;23843;51.320;12.340;2023-03-20T06:48:44;1.27;;;1.10;;
38037;SDS011;23843;51.320;12.340;2023-03-20T06:51:10;0.90;;;0.80;;
38037;SDS011;23843;51.320;12.340;2023-03-20T06:53:35;0.63;;;0.63;;
38037;SDS011;23843;51.320;12.340;2023-03-20T06:56:03;0.60;;;0.60;;
38037;SDS011;23843;51.320;12.340;2023-03-20T06:58:29;0.87;;;0.70;;
38037;SDS011;23843;51.320;12.340;2023-03-20T07:00:54;0.93;;;0.70;;
38037;SDS011;23843;51.320;12.340;2023-03-20T07:03:20;0.50;;;0.50;;
38037;SDS011;23843;51.320;12.340;2023-03-20T07:05:45;0.47;;;0.47;;
38037;SDS011;23843;51.320;12.340;2023-03-20T07:08:11;0.83;;;0.57;;
38037;SDS011;23843;51.320;12.340;2023-03-20T07:10:37;0.57;;;0.57;;
38037;SDS011;23843;51.320;12.340;2023-03-20T07:13:03;0.67;;;0.67;;
38037;SDS011;23843;51.320;12.340;2023-03-20T07:15:29;0.70;;;0.60;;
38037;SDS011;23843;51.320;12.340;2023-03-20T07:17:54;1.80;;;1.30;;
38037;SDS011;23843;51.320;12.340;2023-03-20T07:20:20;1.13;;;1.03;;
38037;SDS011;23843;51.320;12.340;2023-03-20T07:22:46;1.57;;;1.43;;
38037;SDS011;23843;51.320;12.340;2023-03-20T07:25:12;1.40;;;1.20;;
38037;SDS011;23843;51.320;12.340;2023-03-20T07:27:38;2.37;;;1.80;;
38037;SDS011;23843;51.320;12.340;2023-03-20T07:30:05;2.00;;;1.80;;
38037;SDS011;23843;51.320;12.340;2023-03-20T07:32:32;1.40;;;1.30;;
38037;SDS011;23843;51.320;12.340;2023-03-20T07:34:57;1.60;;;1.20;;
38037;SDS011;23843;51.320;12.340;2023-03-20T07:37:22;1.50;;;1.33;;
38037;SDS011;23843;51.320;12.340;2023-03-20T07:39:48;1.43;;;1.20;;
38037;SDS011;23843;51.320;12.340;2023-03-20T07:42:13;3.43;;;2.83;;
38037;SDS011;23843;51.320;12.340;2023-03-20T07:44:39;3.50;;;2.47;;
38037;SDS011;23843;51.320;12.340;2023-03-20T07:47:07;2.70;;;2.37;;
38037;SDS011;23843;51.320;12.340;2023-03-20T07:49:33;2.57;;;2.17;;
38037;SDS011;23843;51.320;12.340;2023-03-20T07:51:58;2.37;;;1.90;;
38037;SDS011;23843;51.320;12.340;2023-03-20T07:54:24;1.80;;;1.60;;
38037;SDS011;23843;51.320;12.340;2023-03-20T07:56:50;2.63;;;2.10;;
38037;SDS011;23843;51.320;12.340;2023-03-20T07:59:15;3.20;;;2.77;;
38037;SDS011;23843;51.320;12.340;2023-03-20T08:01:41;13.70;;;10.17;;
38037;SDS011;23843;51.320;12.340;2023-03-20T08:04:08;12.17;;;8.60;;
38037;SDS011;23843;51.320;12.340;2023-03-20T08:06:34;8.03;;;6.00;;
38037;SDS011;23843;51.320;12.340;2023-03-20T08:08:59;8.80;;;6.00;;
38037;SDS011;23843;51.320;12.340;2023-03-20T08:11:25;7.73;;;5.53;;
38037;SDS011;23843;51.320;12.340;2023-03-20T08:13:50;4.87;;;3.70;;
38037;SDS011;23843;51.320;12.340;2023-03-20T08:16:16;5.20;;;3.60;;
38037;SDS011;23843;51.320;12.340;2023-03-20T08:18:41;4.50;;;3.40;;
38037;SDS011;23843;51.320;12.340;2023-03-20T08:21:08;10.77;;;7.43;;
38037;SDS011;23843;51.320;12.340;2023-03-20T08:23:35;6.80;;;5.50;;
38037;SDS011;23843;51.320;12.340;2023-03-20T08:26:00;5.40;;;4.30;;
38037;SDS011;23843;51.320;12.340;2023-03-20T08:28:26;4.60;;;3.83;;
38037;SDS011;23843;51.320;12.340;2023-03-20T08:30:51;3.93;;;3.10;;
38037;SDS011;23843;51.320;12.340;2023-03-20T08:33:17;3.73;;;2.67;;
38037;SDS011;23843;51.320;12.340;2023-03-20T08:35:43;6.70;;;4.60;;
38037;SDS011;23843;51.320;12.340;2023-03-20T08:38:20;7.33;;;5.40;;
38037;SDS011;23843;51.320;12.340;2023-03-20T08:40:45;13.87;;;9.47;;
38037;SDS011;23843;51.320;12.340;2023-03-20T08:43:11;10.83;;;7.83;;
38037;SDS011;23843;51.320;12.340;2023-03-20T08:45:36;6.63;;;5.07;;
38037;SDS011;23843;51.320;12.340;2023-03-20T08:48:02;7.13;;;4.57;;
38037;SDS011;23843;51.320;12.340;2023-03-20T08:50:28;6.57;;;4.83;;
38037;SDS011;23843;51.320;12.340;2023-03-20T08:52:53;5.53;;;4.07;;
38037;SDS011;23843;51.320;12.340;2023-03-20T08:55:20;4.77;;;3.83;;
38037;SDS011;23843;51.320;12.340;2023-03-20T08:57:45;10.50;;;7.50;;
38037;SDS011;23843;51.320;12.340;2023-03-20T09:00:12;10.47;;;7.53;;
38037;SDS011;23843;51.320;12.340;2023-03-20T09:02:39;9.37;;;6.50;;
38037;SDS011;23843;51.320;12.340;2023-03-20T09:05:05;10.20;;;7.73;;
38037;SDS011;23843;51.320;12.340;2023-03-20T09:07:31;6.60;;;4.97;;
38037;SDS011;23843;51.320;12.340;2023-03-20T09:09:57;9.80;;;7.43;;
38037;SDS011;23843;51.320;12.340;2023-03-20T09:12:24;6.13;;;4.60;;
38037;SDS011;23843;51.320;12.340;2023-03-20T09:14:49;6.40;;;4.67;;
38037;SDS011;23843;51.320;12.340;2023-03-20T09:17:15;6.60;;;4.50;;
38037;SDS011;23843;51.320;12.340;2023-03-20T09:19:40;9.57;;;6.27;;
38037;SDS011;23843;51.320;12.340;2023-03-20T09:22:06;8.70;;;5.87;;
38037;SDS011;23843;51.320;12.340;2023-03-20T09:24:32;7.40;;;5.23;;
38037;SDS011;23843;51.320;12.340;2023-03-20T09:26:57;7.67;;;5.50;;
38037;SDS011;23843;51.320;12.340;2023-03-20T09:29:24;9.50;;;6.73;;
38037;SDS011;23843;51.320;12.340;2023-03-20T09:31:49;12.77;;;9.17;;
38037;SDS011;23843;51.320;12.340;2023-03-20T09:34:17;11.90;;;8.90;;
38037;SDS011;23843;51.320;12.340;2023-03-20T09:36:42;8.00;;;6.00;;
38037;SDS011;23843;51.320;12.340;2023-03-20T09:39:07;7.23;;;5.50;;
38037;SDS011;23843;51.320;12.340;2023-03-20T09:41:33;10.57;;;7.87;;
38037;SDS011;23843;51.320;12.340;2023-03-20T09:44:09;8.90;;;6.60;;
38037;SDS011;23843;51.320;12.340;2023-03-20T09:46:45;9.30;;;6.57;;
38037;SDS011;23843;51.320;12.340;2023-03-20T09:49:34;8.13;;;5.50;;
38037;SDS011;23843;51.320;12.340;2023-03-20T09:52:08;5.90;;;4.50;;
38037;SDS011;23843;51.320;12.340;2023-03-20T09:54:42;6.37;;;4.97;;
38037;SDS011;23843;51.320;12.340;2023-03-20T09:57:19;6.57;;;4.90;;
38037;SDS011;23843;51.320;12.340;2023-03-20T09:59:47;8.87;;;6.30;;
38037;SDS011;23843;51.320;12.340;2023-03-20T10:02:22;6.17;;;4.67;;
38037;SDS011;23843;51.320;12.340;2023-03-20T10:04:58;5.03;;;3.70;;
38037;SDS011;23843;51.320;12.340;2023-03-20T10:07:23;3.63;;;3.00;;
38037;SDS011;23843;51.320;12.340;2023-03-20T10:09:49;6.30;;;4.57;;
38037;SDS011;23843;51.320;12.340;2023-03-20T10:12:19;4.97;;;3.60;;
38037;SDS011;23843;51.320;12.340;2023-03-20T10:14:54;4.13;;;2.83;;
38037;SDS011;23843;51.320;12.340;2023-03-20T10:17:33;6.67;;;4.63;;
38037;SDS011;23843;51.320;12.340;2023-03-20T10:20:10;5.27;;;3.47;;
38037;SDS011;23843;51.320;12.340;2023-03-20T10:22:38;4.30;;;3.10;;
38037;SDS011;23843;51.320;12.340;2023-03-20T10:25:15;4.33;;;3.47;;
38037;SDS011;23843;51.320;12.340;2023-03-20T10:27:55;5.13;;;3.60;;
38037;SDS011;23843;51.320;12.340;2023-03-20T10:30:32;3.37;;;2.60;;
38037;SDS011;23843;51.320;12.340;2023-03-20T10:33:11;3.13;;;2.63;;
38037;SDS011;23843;51.320;12.340;2023-03-20T10:35:48;4.43;;;3.00;;
38037;SDS011;23843;51.320;12.340;2023-03-20T10:38:23;4.37;;;2.90;;
38037;SDS011;23843;51.320;12.340;2023-03-20T10:40:55;3.53;;;2.60;;
38037;SDS011;23843;51.320;12.340;2023-03-20T10:43:23;3.33;;;2.60;;
38037;SDS011;23843;51.320;12.340;2023-03-20T10:45:56;2.30;;;2.00;;
38037;SDS011;23843;51.320;12.340;2023-03-20T10:48:29;2.73;;;2.10;;
38037;SDS011;23843;51.320;12.340;2023-03-20T10:50:58;2.70;;;2.27;;
38037;SDS011;23843;51.320;12.340;2023-03-20T10:53:27;5.07;;;3.10;;
38037;SDS011;23843;51.320;12.340;2023-03-20T10:55:55;5.57;;;3.93;;
38037;SDS011;23843;51.320;12.340;2023-03-20T10:58:25;4.27;;;3.07;;
38037;SDS011;23843;51.320;12.340;2023-03-20T11:00:53;5.70;;;4.00;;
38037;SDS011;23843;51.320;12.340;2023-03-20T11:03:20;4.33;;;3.00;;
38037;SDS011;23843;51.320;12.340;2023-03-20T11:05:49;3.50;;;2.43;;
38037;SDS011;23843;51.320;12.340;2023-03-20T11:08:21;2.80;;;2.27;;
38037;SDS011;23843;51.320;12.340;2023-03-20T11:10:56;2.97;;;2.13;;
38037;SDS011;23843;51.320;12.340;2023-03-20T11:13:24;2.50;;;2.00;;
38037;SDS011;23843;51.320;12.340;2023-03-20T11:15:51;2.70;;;1.97;;
38037;SDS011;23843;51.320;12.340;2023-03-20T11:18:17;2.73;;;2.13;;
38037;SDS011;23843;51.320;12.340;2023-03-20T11:20:44;2.37;;;1.90;;
38037;SDS011;23843;51.320;12.340;2023-03-20T11:23:15;2.90;;;2.20;;
38037;SDS011;23843;51.320;12.340;2023-03-20T11:25:48;3.33;;;2.53;;
38037;SDS011;23843;51.320;12.340;2023-03-20T11:28:20;5.53;;;3.20;;
38037;SDS011;23843;51.320;12.340;2023-03-20T11:30:57;4.33;;;3.23;;
38037;SDS011;23843;51.320;12.340;2023-03-20T11:33:25;6.33;;;4.20;;
38037;SDS011;23843;51.320;12.340;2023-03-20T11:35:52;4.27;;;3.00;;
38037;SDS011;23843;51.320;12.340;2023-03-20T11:38:21;4.30;;;3.20;;
38037;SDS011;23843;51.320;12.340;2023-03-20T11:40:47;3.90;;;3.00;;
38037;SDS011;23843;51.320;12.340;2023-03-20T11:43:14;3.03;;;2.30;;
38037;SDS011;23843;51.320;12.340;2023-03-20T11:45:44;3.50;;;2.60;;
38037;SDS011;23843;51.320;12.340;2023-03-20T11:48:15;2.90;;;2.33;;
38037;SDS011;23843;51.320;12.340;2023-03-20T11:50:44;3.43;;;2.67;;
38037;SDS011;23843;51.320;12.340;2023-03-20T11:53:21;7.23;;;5.17;;
38037;SDS011;23843;51.320;12.340;2023-03-20T11:56:00;5.97;;;4.60;;
38037;SDS011;23843;51.320;12.340;2023-03-20T11:58:29;11.73;;;7.37;;
38037;SDS011;23843;51.320;12.340;2023-03-20T12:00:55;9.40;;;6.83;;
38037;SDS011;23843;51.320;12.340;2023-03-20T12:06:07;5.70;;;4.27;;
38037;SDS011;23843;51.320;12.340;2023-03-20T12:08:38;5.53;;;3.63;;
38037;SDS011;23843;51.320;12.340;2023-03-20T12:11:09;6.13;;;4.53;;
38037;SDS011;23843;51.320;12.340;2023-03-20T12:13:48;4.83;;;3.90;;
38037;SDS011;23843;51.320;12.340;2023-03-20T12:16:15;6.13;;;4.80;;
38037;SDS011;23843;51.320;12.340;2023-03-20T12:18:45;6.20;;;4.73;;
38037;SDS011;23843;51.320;12.340;2023-03-20T12:21:14;8.07;;;6.00;;
38037;SDS011;23843;51.320;12.340;2023-03-20T12:23:46;5.80;;;4.57;;
38037;SDS011;23843;51.320;12.340;2023-03-20T12:26:17;4.50;;;3.40;;
38037;SDS011;23843;51.320;12.340;2023-03-20T12:28:48;3.83;;;3.10;;
38037;SDS011;23843;51.320;12.340;2023-03-20T12:31:20;2.70;;;2.40;;
38037;SDS011;23843;51.320;12.340;2023-03-20T12:33:51;3.07;;;2.70;;
38037;SDS011;23843;51.320;12.340;2023-03-20T12:36:23;4.57;;;3.07;;
38037;SDS011;23843;51.320;12.340;2023-03-20T12:38:54;4.00;;;3.27;;
38037;SDS011;23843;51.320;12.340;2023-03-20T12:41:21;4.50;;;3.17;;
38037;SDS011;23843;51.320;12.340;2023-03-20T12:44:00;4.57;;;3.57;;
38037;SDS011;23843;51.320;12.340;2023-03-20T12:46:39;6.83;;;4.70;;
38037;SDS011;23843;51.320;12.340;2023-03-20T12:49:11;4.17;;;3.33;;
38037;SDS011;23843;51.320;12.340;2023-03-20T12:51:50;2.93;;;2.57;;
38037;SDS011;23843;51.320;12.340;2023-03-20T12:54:29;4.27;;;3.20;;
38037;SDS011;23843;51.320;12.340;2023-03-20T12:57:09;9.07;;;6.53;;
38037;SDS011;23843;51.320;12.340;2023-03-20T12:59:44;5.43;;;4.60;;
38037;SDS011;23843;51.320;12.340;2023-03-20T13:02:38;3.17;;;2.60;;
38037;SDS011;23843;51.320;12.340;2023-03-20T13:05:15;3.30;;;2.03;;
38037;SDS011;23843;51.320;12.340;2023-03-20T13:10:55;4.20;;;3.20;;
38037;SDS011;23843;51.320;12.340;2023-03-20T13:13:27;3.27;;;2.60;;
38037;SDS011;23843;51.320;12.340;2023-03-20T13:16:00;3.07;;;2.73;;
38037;SDS011;23843;51.320;12.340;2023-03-20T13:18:38;2.97;;;2.33;;
38037;SDS011;23843;51.320;12.340;2023-03-20T13:21:12;2.57;;;2.10;;
38037;SDS011;23843;51.320;12.340;2023-03-20T13:23:45;3.53;;;2.60;;
38037;SDS011;23843;51.320;12.340;2023-03-20T13:26:22;4.20;;;3.00;;
38037;SDS011;23843;51.320;12.340;2023-03-20T13:28:56;3.37;;;2.43;;
38037;SDS011;23843;51.320;12.340;2023-03-20T13:31:32;8.67;;;5.03;;
38037;SDS011;23843;51.320;12.340;2023-03-20T13:34:10;5.53;;;4.10;;
38037;SDS011;23843;51.320;12.340;2023-03-20T13:36:48;4.50;;;2.90;;
38037;SDS011;23843;51.320;12.340;2023-03-20T13:39:20;3.60;;;2.73;;
38037;SDS011;23843;51.320;12.340;2023-03-20T13:41:49;2.33;;;2.00;;
38037;SDS011;23843;51.320;12.340;2023-03-20T13:44:17;5.63;;;4.13;;
38037;SDS011;23843;51.320;12.340;2023-03-20T13:46:44;9.37;;;7.10;;
38037;SDS011;23843;51.320;12.340;2023-03-20T13:49:13;7.73;;;5.80;;
38037;SDS011;23843;51.320;12.340;2023-03-20T13:51:46;6.10;;;4.70;;
38037;SDS011;23843;51.320;12.340;2023-03-20T13:54:20;5.73;;;4.10;;
38037;SDS011;23843;51.320;12.340;2023-03-20T13:57:00;5.33;;;3.73;;
38037;SDS011;23843;51.320;12.340;2023-03-20T13:59:46;5.30;;;4.10;;
38037;SDS011;23843;51.320;12.340;2023-03-20T14:02:20;6.27;;;4.70;;
38037;SDS011;23843;51.320;12.340;2023-03-20T14:04:57;3.93;;;3.00;;
38037;SDS011;23843;51.320;12.340;2023-03-20T14:07:28;4.60;;;3.50;;
38037;SDS011;23843;51.320;12.340;2023-03-20T14:09:55;6.23;;;4.53;;
38037;SDS011;23843;51.320;12.340;2023-03-20T14:12:23;6.13;;;4.87;;
38037;SDS011;23843;51.320;12.340;2023-03-20T14:14:51;4.70;;;3.60;;
38037;SDS011;23843;51.320;12.340;2023-03-20T14:17:20;5.93;;;4.47;;
38037;SDS011;23843;51.320;12.340;2023-03-20T14:19:49;6.87;;;4.97;;
38037;SDS011;23843;51.320;12.340;2023-03-20T14:22:15;7.43;;;5.50;;
38037;SDS011;23843;51.320;12.340;2023-03-20T14:24:47;4.53;;;3.70;;
38037;SDS011;23843;51.320;12.340;2023-03-20T14:27:19;3.13;;;2.80;;
38037;SDS011;23843;51.320;12.340;2023-03-20T14:29:47;2.90;;;2.50;;
38037;SDS011;23843;51.320;12.340;2023-03-20T14:32:22;2.97;;;2.50;;
38037;SDS011;23843;51.320;12.340;2023-03-20T14:34:58;7.20;;;3.33;;
38037;SDS011;23843;51.320;12.340;2023-03-20T14:37:26;3.07;;;2.20;;
38037;SDS011;23843;51.320;12.340;2023-03-20T14:40:00;4.77;;;3.70;;
38037;SDS011;23843;51.320;12.340;2023-03-20T14:42:36;5.90;;;3.97;;
38037;SDS011;23843;51.320;12.340;2023-03-20T14:45:19;5.70;;;4.83;;
38037;SDS011;23843;51.320;12.340;2023-03-20T14:47:54;5.47;;;4.30;;
38037;SDS011;23843;51.320;12.340;2023-03-20T14:50:27;4.13;;;3.47;;
38037;SDS011;23843;51.320;12.340;2023-03-20T14:53:10;6.40;;;5.43;;
38037;SDS011;23843;51.320;12.340;2023-03-20T14:55:46;3.90;;;3.47;;
38037;SDS011;23843;51.320;12.340;2023-03-20T15:01:15;2.80;;;2.50;;
38037;SDS011;23843;51.320;12.340;2023-03-20T15:03:48;2.00;;;1.80;;
38037;SDS011;23843;51.320;12.340;2023-03-20T15:06:17;4.33;;;3.50;;
38037;SDS011;23843;51.320;12.340;2023-03-20T15:08:44;5.37;;;3.83;;
38037;SDS011;23843;51.320;12.340;2023-03-20T15:11:15;4.47;;;3.63;;
38037;SDS011;23843;51.320;12.340;2023-03-20T15:13:42;2.90;;;2.33;;
38037;SDS011;23843;51.320;12.340;2023-03-20T15:16:09;3.73;;;2.97;;
38037;SDS011;23843;51.320;12.340;2023-03-20T15:18:38;4.83;;;3.97;;
38037;SDS011;23843;51.320;12.340;2023-03-20T15:21:09;4.10;;;3.30;;
38037;SDS011;23843;51.320;12.340;2023-03-20T15:23:39;6.17;;;4.83;;
38037;SDS011;23843;51.320;12.340;2023-03-20T15:26:07;5.40;;;3.73;;
38037;SDS011;23843;51.320;12.340;2023-03-20T15:28:33;4.63;;;3.73;;
38037;SDS011;23843;51.320;12.340;2023-03-20T15:30:58;3.67;;;2.83;;
38037;SDS011;23843;51.320;12.340;2023-03-20T15:33:25;2.93;;;2.53;;
38037;SDS011;23843;51.320;12.340;2023-03-20T15:35:54;3.20;;;2.47;;
38037;SDS011;23843;51.320;12.340;2023-03-20T15:38:20;3.27;;;2.93;;
38037;SDS011;23843;51.320;12.340;2023-03-20T15:40:46;4.67;;;3.70;;
38037;SDS011;23843;51.320;12.340;2023-03-20T15:43:13;6.27;;;5.10;;
38037;SDS011;23843;51.320;12.340;2023-03-20T15:45:42;5.37;;;4.30;;
38037;SDS011;23843;51.320;12.340;2023-03-20T15:48:11;4.63;;;4.03;;
38037;SDS011;23843;51.320;12.340;2023-03-20T15:50:38;6.20;;;4.50;;
38037;SDS011;23843;51.320;12.340;2023-03-20T15:53:07;6.30;;;4.80;;
38037;SDS011;23843;51.320;12.340;2023-03-20T15:55:35;3.37;;;2.80;;
38037;SDS011;23843;51.320;12.340;2023-03-20T15:58:02;2.67;;;2.30;;
38037;SDS011;23843;51.320;12.340;2023-03-20T16:00:29;3.23;;;2.23;;
38037;SDS011;23843;51.320;12.340;2023-03-20T16:02:56;2.73;;;2.30;;
38037;SDS011;23843;51.320;12.340;2023-03-20T16:05:24;2.93;;;2.20;;
38037;SDS011;23843;51.320;12.340;2023-03-20T16:07:52;1.80;;;1.60;;
38037;SDS011;23843;51.320;12.340;2023-03-20T16:10:20;2.30;;;1.83;;
38037;SDS011;23843;51.320;12.340;2023-03-20T16:12:51;2.27;;;1.80;;
38037;SDS011;23843;51.320;12.340;2023-03-20T16:15:17;1.93;;;1.50;;
38037;SDS011;23843;51.320;12.340;2023-03-20T16:17:44;1.90;;;1.50;;
38037;SDS011;23843;51.320;12.340;2023-03-20T16:20:12;2.40;;;1.90;;
38037;SDS011;23843;51.320;12.340;2023-03-20T16:22:38;2.83;;;2.40;;
38037;SDS011;23843;51.320;12.340;2023-03-20T16:25:08;3.37;;;2.90;;
38037;SDS011;23843;51.320;12.340;2023-03-20T16:27:39;3.80;;;2.70;;
38037;SDS011;23843;51.320;12.340;2023-03-20T16:30:07;2.10;;;1.60;;
38037;SDS011;23843;51.320;12.340;2023-03-20T16:32:38;1.67;;;1.47;;
38037;SDS011;23843;51.320;12.340;2023-03-20T16:35:07;1.10;;;1.00;;
38037;SDS011;23843;51.320;12.340;2023-03-20T16:37:41;1.40;;;1.17;;
38037;SDS011;23843;51.320;12.340;2023-03-20T16:40:12;1.33;;;1.03;;
38037;SDS011;23843;51.320;12.340;2023-03-20T16:42:41;1.00;;;0.90;;
38037;SDS011;23843;51.320;12.340;2023-03-20T16:45:13;0.90;;;0.90;;
38037;SDS011;23843;51.320;12.340;2023-03-20T16:47:44;1.07;;;0.80;;
38037;SDS011;23843;51.320;12.340;2023-03-20T16:50:16;0.57;;;0.57;;
38037;SDS011;23843;51.320;12.340;2023-03-20T16:52:45;0.70;;;0.70;;
38037;SDS011;23843;51.320;12.340;2023-03-20T16:55:15;1.90;;;1.30;;
38037;SDS011;23843;51.320;12.340;2023-03-20T16:57:46;1.23;;;1.07;;
38037;SDS011;23843;51.320;12.340;2023-03-20T17:00:18;0.70;;;0.70;;
38037;SDS011;23843;51.320;12.340;2023-03-20T17:02:48;0.80;;;0.70;;
38037;SDS011;23843;51.320;12.340;2023-03-20T17:05:15;0.60;;;0.60;;
38037;SDS011;23843;51.320;12.340;2023-03-20T17:07:46;0.50;;;0.50;;
38037;SDS011;23843;51.320;12.340;2023-03-20T17:10:16;0.60;;;0.60;;
38037;SDS011;23843;51.320;12.340;2023-03-20T17:12:44;0.70;;;0.70;;
38037;SDS011;23843;51.320;12.340;2023-03-20T17:15:12;0.90;;;0.77;;
38037;SDS011;23843;51.320;12.340;2023-03-20T17:17:39;0.53;;;0.53;;
38037;SDS011;23843;51.320;12.340;2023-03-20T17:20:04;0.37;;;0.37;;
38037;SDS011;23843;51.320;12.340;2023-03-20T17:22:31;0.80;;;0.60;;
38037;SDS011;23843;51.320;12.340;2023-03-20T17:24:56;0.80;;;0.80;;
38037;SDS011;23843;51.320;12.340;2023-03-20T17:27:22;1.10;;;0.80;;
38037;SDS011;23843;51.320;12.340;2023-03-20T17:29:49;0.70;;;0.70;;
38037;SDS011;23843;51.320;12.340;2023-03-20T17:32:15;1.07;;;0.83;;
38037;SDS011;23843;51.320;12.340;2023-03-20T17:34:42;0.80;;;0.73;;
38037;SDS011;23843;51.320;12.340;2023-03-20T17:37:08;0.57;;;0.57;;
38037;SDS011;23843;51.320;12.340;2023-03-20T17:39:37;0.60;;;0.60;;
38037;SDS011;23843;51.320;12.340;2023-03-20T17:42:02;0.93;;;0.70;;
38037;SDS011;23843;51.320;12.340;2023-03-20T17:44:30;0.57;;;0.57;;
38037;SDS011;23843;51.320;12.340;2023-03-20T17:46:56;0.60;;;0.60;;
38037;SDS011;23843;51.320;12.340;2023-03-20T17:49:22;0.90;;;0.80;;
38037;SDS011;23843;51.320;12.340;2023-03-20T17:51:48;0.50;;;0.50;;
38037;SDS011;23843;51.320;12.340;2023-03-20T17:54:13;0.80;;;0.80;;
38037;SDS011;23843;51.320;12.340;2023-03-20T17:56:39;0.70;;;0.70;;
38037;SDS011;23843;51.320;12.340;2023-03-20T17:59:04;0.57;;;0.57;;
38037;SDS011;23843;51.320;12.340;2023-03-20T18:01:29;0.67;;;0.60;;
38037;SDS011;23843;51.320;12.340;2023-03-20T18:03:56;1.00;;;0.90;;
38037;SDS011;23843;51.320;12.340;2023-03-20T18:06:23;1.27;;;0.97;;
38037;SDS011;23843;51.320;12.340;2023-03-20T18:08:50;0.60;;;0.57;;
38037;SDS011;23843;51.320;12.340;2023-03-20T18:11:15;0.73;;;0.60;;
38037;SDS011;23843;51.320;12.340;2023-03-20T18:13:41;0.60;;;0.60;;
38037;SDS011;23843;51.320;12.340;2023-03-20T18:16:10;0.80;;;0.60;;
38037;SDS011;23843;51.320;12.340;2023-03-20T18:18:41;0.73;;;0.57;;
38037;SDS011;23843;51.320;12.340;2023-03-20T18:21:08;1.30;;;1.20;;
38037;SDS011;23843;51.320;12.340;2023-03-20T18:23:35;0.90;;;0.80;;
38037;SDS011;23843;51.320;12.340;2023-03-20T18:26:00;0.67;;;0.63;;
38037;SDS011;23843;51.320;12.340;2023-03-20T18:28:26;0.90;;;0.80;;
38037;SDS011;23843;51.320;12.340;2023-03-20T18:30:51;0.97;;;0.87;;
38037;SDS011;23843;51.320;12.340;2023-03-20T18:33:17;0.80;;;0.70;;
38037;SDS011;23843;51.320;12.340;2023-03-20T18:35:42;1.40;;;1.00;;
38037;SDS011;23843;51.320;12.340;2023-03-20T18:38:09;1.27;;;1.10;;
38037;SDS011;23843;51.320;12.340;2023-03-20T18:40:36;1.20;;;1.00;;
38037;SDS011;23843;51.320;12.340;2023-03-20T18:43:02;1.10;;;0.90;;
38037;SDS011;23843;51.320;12.340;2023-03-20T18:45:28;0.70;;;0.70;;
38037;SDS011;23843;51.320;12.340;2023-03-20T18:47:54;1.60;;;1.00;;
38037;SDS011;23843;51.320;12.340;2023-03-20T18:50:22;1.37;;;1.13;;
38037;SDS011;23843;51.320;12.340;2023-03-20T18:52:53;1.67;;;1.30;;
38037;SDS011;23843;51.320;12.340;2023-03-20T18:55:21;1.67;;;1.27;;
38037;SDS011;23843;51.320;12.340;2023-03-20T18:57:47;1.50;;;1.00;;
38037;SDS011;23843;51.320;12.340;2023-03-20T19:00:17;1.43;;;1.10;;
38037;SDS011;23843;51.320;12.340;2023-03-20T19:02:44;1.10;;;1.00;;
38037;SDS011;23843;51.320;12.340;2023-03-20T19:05:09;5.30;;;3.50;;
38037;SDS011;23843;51.320;12.340;2023-03-20T19:07:35;4.57;;;3.57;;
38037;SDS011;23843;51.320;12.340;2023-03-20T19:10:00;2.90;;;2.20;;
38037;SDS011;23843;51.320;12.340;2023-03-20T19:12:27;3.30;;;2.50;;
38037;SDS011;23843;51.320;12.340;2023-03-20T19:14:53;2.80;;;2.13;;
38037;SDS011;23843;51.320;12.340;2023-03-20T19:17:18;2.10;;;1.67;;
38037;SDS011;23843;51.320;12.340;2023-03-20T19:19:44;1.77;;;1.40;;
38037;SDS011;23843;51.320;12.340;2023-03-20T19:22:09;2.13;;;1.53;;
38037;SDS011;23843;51.320;12.340;2023-03-20T19:24:34;1.63;;;1.10;;
38037;SDS011;23843;51.320;12.340;2023-03-20T19:27:00;1.23;;;1.03;;
38037;SDS011;23843;51.320;12.340;2023-03-20T19:29:27;1.57;;;1.20;;
38037;SDS011;23843;51.320;12.340;2023-03-20T19:31:52;1.70;;;1.27;;
38037;SDS011;23843;51.320;12.340;2023-03-20T19:34:18;1.80;;;1.30;;
38037;SDS011;23843;51.320;12.340;2023-03-20T19:36:43;1.43;;;1.17;;
38037;SDS011;23843;51.320;12.340;2023-03-20T19:39:10;1.43;;;1.00;;
38037;SDS011;23843;51.320;12.340;2023-03-20T19:41:38;1.60;;;1.20;;
38037;SDS011;23843;51.320;12.340;2023-03-20T19:44:04;1.23;;;1.10;;
38037;SDS011;23843;51.320;12.340;2023-03-20T19:46:31;1.80;;;1.47;;
38037;SDS011;23843;51.320;12.340;2023-03-20T19:48:56;4.10;;;2.77;;
38037;SDS011;23843;51.320;12.340;2023-03-20T19:51:23;3.53;;;2.43;;
38037;SDS011;23843;51.320;12.340;2023-03-20T19:53:49;4.47;;;3.13;;
38037;SDS011;23843;51.320;12.340;2023-03-20T19:56:15;2.33;;;1.90;;
38037;SDS011;23843;51.320;12.340;2023-03-20T19:58:41;4.90;;;3.33;;
38037;SDS011;23843;51.320;12.340;2023-03-20T20:01:07;4.70;;;3.60;;
38037;SDS011;23843;51.320;12.340;2023-03-20T20:03:39;5.03;;;3.60;;
38037;SDS011;23843;51.320;12.340;2023-03-20T20:06:04;4.07;;;2.93;;
38037;SDS011;23843;51.320;12.340;2023-03-20T20:08:30;2.60;;;2.07;;
38037;SDS011;23843;51.320;12.340;2023-03-20T20:10:56;1.73;;;1.60;;
38037;SDS011;23843;51.320;12.340;2023-03-20T20:13:23;1.83;;;1.50;;
38037;SDS011;23843;51.320;12.340;2023-03-20T20:15:50;1.60;;;1.20;;
38037;SDS011;23843;51.320;12.340;2023-03-20T20:18:16;1.90;;;1.57;;
38037;SDS011;23843;51.320;12.340;2023-03-20T20:20:44;1.97;;;1.43;;
38037;SDS011;23843;51.320;12.340;2023-03-20T20:23:10;1.30;;;1.10;;